CheckWX is a tool to help pilots better visualize weather data.  It is not intended as a substitute for an official pre-flight weather briefing.

12:24:41 UTC

KTOA METAR
Zamperini Field Airport
Torrance, California, USA
Current

9 hours ago

KTOA 180348Z COR 25021G31KT 10SM SCT030 11/04 A2997 RMK LAST
Observed
Feb-18 @ 03:48 UTC
Wind
  • 250° at 21 KTS
  • Gusting to 31 KTS
Visibility
10 SM
Flight Rules
VFR
Cloud Levels
  • Scattered at 3,000' AGL
Temperature
11°C / 52°F
Dewpoint
C / 39°F
Humidity
62%
Altimeter
29.97" Hg
Pressure
1014.92 hPa
Previous

10 hours ago

KTOA 180247Z 24021G31KT 10SM SCT030 11/04 A2996
Observed
Feb-18 @ 02:47 UTC
Wind
  • 240° at 21 KTS
  • Gusting to 31 KTS
Visibility
10 SM
Flight Rules
VFR
Cloud Levels
  • Scattered at 3,000' AGL
Temperature
11°C / 52°F
Dewpoint
C / 39°F
Humidity
62%
Altimeter
29.96" Hg
Pressure
1014.52 hPa
Previous

10 hours ago

KTOA 180155Z 25021G33KT 10SM SCT020 11/04 A2995
Observed
Feb-18 @ 01:55 UTC
Wind
  • 250° at 21 KTS
  • Gusting to 33 KTS
Visibility
10 SM
Flight Rules
VFR
Cloud Levels
  • Scattered at 2,000' AGL
Temperature
11°C / 52°F
Dewpoint
C / 39°F
Humidity
62%
Altimeter
29.95" Hg
Pressure
1014.22 hPa